Hovedside
METAR-TAF:

METAR-TAF

Lufthavner :

Wallis, Frankrike

breddegrad: 13-14S, lengdegrad: 176-10W, høyde over havet: 23 m

METAR: fraværende

Tid: 05:32 (17:32 UTC)

Varsel

Denne rapporten ble laget for 6 timer og 32 minutter siden, klokken 11:00 UTC
Varsel gyldig fra 18. klokken 12 UTC til 19. klokken 12 UTC
Vind 5 kt fra Øst
Sikt 10 km eller mer
Spredte skyer i en høyde av 2500 ft
Sannsynlighet 40% :
Midlertidig
fra 18. klokken 12 UTC til 18. klokken 24 UTC
Sikt: 2500 m
Få skyer i en høyde av 2000 ft, Bygeskyer.
regnbyger
Midlertidig
fra 19. klokken 06 UTC til 19. klokken 12 UTC
Sikt: 2000 m
Spredte skyer i en høyde av 2500 ft, Bygeskyer.
regnbyger

TAF: NLWW 181100Z 1812/1912 08005KT 9999 SCT025 PROB40 TEMPO 1812/1824 2500 SHRA FEW020CB TEMPO 1906/1912 2000 SHRA SCT025CB

Værobservasjoner og værvarsel for over 4000 flyplasser (METAR- og TAF-rapporter).

Tilgjengelige stasjoner er representert av de røde og gule prikkene på kartet.

Hold musepekeren over prikken for å se navnet på stasjonen.

Klikk så for å se værobservasjoner og -varsler.

For å forandre kartet kan du klikke på den grønne knappen med svart kryss for å zoome inn, på den grønne knappen med strek for å zoome ut, eller på de grønne pilene for å se tilstøtende kart.


METAR-TAF: